Tomas Kuklys

Chefscout - Utenis
4 Dez 2028
Montag
Verarbeitung

Persönlichkeit

Anpassungsfähigkeit (6) Ehrgeiz (13) Kontroverse (16) Loyalität (18) Druck (7) Professionalität (16) Fairness (13) Temperament (16)

Profil

Trainerstil Demokratisch
Lizenz Kontinentale C
Entschlossenheit 3
Menschenführung 5
Motivation 3
Disziplin 5
Arbeitszufriedenheit
100%
Ermüdung
0%
Rolle Chefscout
Gehalt 31.4K p/W
Vertrag 14.03.2030

Leistung

Verhalten Gut
Trainingseffektivität
25%
Spielerentwicklung
30%
Verletzungsprävention
20%
Taktische Umsetzung
20%

Letzte Ereignisse

Empfahl ein Transferziel jetzt
Nahm an einer Scouting-Besprechung teil jetzt
Nahm an einer Scouting-Besprechung teil jetzt
Nahm an einer Scouting-Besprechung teil jetzt
Spieler begutachtet jetzt
Spieler begutachtet jetzt
Spieler begutachtet jetzt
Spieler begutachtet jetzt

Aktuell beobachtet

81
Spieler Verein Status Fähigkeit Vertrauen Beobachtet Zuletzt beobachtet Letzte Stimme
Vladislav Karpenya Baranovichi Aktiv 94 / 80 40% 2 03.12.2028 -
Darko Todorović Fakel Aktiv 119 / 113 40% 1 03.12.2028 -
Luis Olivera Defensores Unidos Aktiv 101 / 117 40% 2 02.12.2028 -
Marcos Enrique Tristán Suárez Aktiv 114 / 107 40% 1 02.12.2028 -
Nicolás Fernández Maipú Aktiv 117 / 106 40% 3 01.12.2028 -
Gonzalo Trindade Nueva Chicago Aktiv 124 / 105 40% 1 01.12.2028 -
Agustín Sosa Madryn Aktiv 105 / 108 40% 2 30.11.2028 -
Abel Bustos Racing Aktiv 100 / 106 40% 2 30.11.2028 -
Ian Pérez Defensores Aktiv 118 / 98 40% 2 29.11.2028 -
Iván Peralta Arsenal Aktiv 103 / 99 40% 1 28.11.2028 -
Tomás Ferreyra Defensores Unidos Aktiv 128 / 108 40% 3 27.11.2028 -
Joaquín Livera Morón Aktiv 92 / 105 40% 1 27.11.2028 -
Santiago Longo Belgrano Aktiv 117 / 133 40% 3 25.11.2028 -
Pedro Souto Temperley Aktiv 117 / 107 40% 2 25.11.2028 -
Lucas Más Maipú Aktiv 99 / 106 40% 1 22.11.2028 -
Lautaro Núñez Alvarado Aktiv 111 / 95 40% 1 19.11.2028 -
Ramiro Makarte Alvarado Aktiv 105 / 102 40% 1 19.11.2028 -
Ji-hun Park Minsk Aktiv 102 / 92 40% 1 16.11.2028 -
Carlos Casas San Telmo Aktiv 108 / 102 40% 1 16.11.2028 -
Federico Ulayar Talleres Aktiv 110 / 106 40% 1 14.11.2028 -
Bruno Leyes Godoy Cruz Aktiv 125 / 119 40% 1 14.11.2028 -
Braian Aranda Agropecuario Argentino Aktiv 121 / 110 40% 1 13.11.2028 -
Facundo Rodríguez Estudiantes Aktiv 140 / 121 40% 1 13.11.2028 -
Vladislav Melko Torpedo-BelAZ Aktiv 90 / 97 40% 1 12.11.2028 -
Artemiy Litvinov Naftan Aktiv 79 / 79 40% 1 12.11.2028 -
Lautaro Vargas Unión de Santa Fe Aktiv 130 / 130 40% 1 11.11.2028 -
Damián Adín San Miguel Aktiv 129 / 116 40% 2 10.11.2028 -
Tomás Castro Ponce Atlanta Aktiv 117 / 106 40% 1 10.11.2028 -
Enzo Silcan Almagro Aktiv 102 / 106 40% 1 08.11.2028 -
Gabriel Altamirano Almirante Brown Aktiv 112 / 107 40% 1 05.11.2028 -
Eyder Restrepo Llaneros Aktiv 120 / 103 40% 1 05.11.2028 -
Evgeniy Yudchits Isloch Aktiv 90 / 97 40% 1 03.11.2028 -
Evgeniy Novykh Vitebsk Aktiv 95 / 92 40% 2 01.11.2028 -
Pablo Cardona Cortulua Aktiv 132 / 127 40% 2 01.11.2028 -
Yeferson Rodallega Envigado Aktiv 110 / 112 40% 2 31.10.2028 -
Matías Bazzi Talleres Aktiv 118 / 105 40% 1 31.10.2028 -
Luis Palacios Once Caldas Aktiv 114 / 127 40% 3 30.10.2028 -
Franco Díaz Temperley Aktiv 139 / 127 40% 1 30.10.2028 -
Luciano Arnijas Maipú Aktiv 101 / 120 40% 1 29.10.2028 -
Julio López Defensores Unidos Aktiv 107 / 101 40% 1 29.10.2028 -
Iván Cabrera Arsenal Aktiv 103 / 104 40% 2 28.10.2028 -
Inti Borghetto Patronato Aktiv 84 / 95 40% 1 28.10.2028 -
Tomás Rojas Atlanta Aktiv 115 / 113 40% 2 27.10.2028 -
Tomás Oneto Güemes Aktiv 98 / 100 40% 1 27.10.2028 -
Olawale Emmanuel Niger Tornadoes Aktiv 82 / 81 40% 1 25.10.2028 -
Valentín Aguiñagalde Temperley Aktiv 121 / 118 40% 1 23.10.2028 -
Peter Ikechukwu Kun Khalifat Aktiv 75 / 75 40% 1 23.10.2028 -
Martín García Atlanta Aktiv 111 / 110 40% 1 22.10.2028 -
Brian Nievas Chaco For Ever Aktiv 96 / 110 40% 2 21.10.2028 -
Agustín Benítez Defensores Aktiv 120 / 119 40% 1 20.10.2028 -
Mauricio Guzmán Tristán Suárez Aktiv 105 / 117 40% 1 20.10.2028 -
Siro Rosané Estudiantes Aktiv 127 / 125 40% 1 17.10.2028 -
Gonzalo Gamarra Defensores Aktiv 118 / 115 40% 1 17.10.2028 -
Laureano Rodríguez San Martín Aktiv 95 / 106 40% 1 15.10.2028 -
Yeison Suárez Deportivo Pereira Aktiv 120 / 124 40% 1 13.10.2028 -
Pedro Sanz Central Norte Aktiv 97 / 115 40% 1 13.10.2028 -
Walter Juárez Güemes Aktiv 108 / 110 40% 1 12.10.2028 -
Egor Imeryakov Molodechno Aktiv 87 / 88 40% 1 08.10.2028 -
Brian Aguilar Tristán Suárez Aktiv 129 / 121 40% 1 07.10.2028 -
Ilya Rutskiy Torpedo-BelAZ Aktiv 102 / 90 40% 1 06.10.2028 -
Francisco Ginella Albion Aktiv 101 / 105 40% 1 06.10.2028 -
Rodrigo Ramírez Nueva Chicago Aktiv 114 / 109 40% 1 04.10.2028 -
Guillermo Rodríguez San Martín Aktiv 96 / 105 40% 1 02.10.2028 -
Igor Tyjon Barrow AFC Aktiv 127 / 127 40% 1 27.06.2028 -
Jamie Mullins Wycombe Wanderers Aktiv 119 / 103 40% 1 27.06.2028 -
Stanislav Magkeev Fakel Aktiv 107 / 114 40% 1 26.06.2028 -
Daniil Penchikov Arsenal Tula Aktiv 109 / 108 40% 1 26.06.2028 -
Ignas Girdvainis Atlantas Aktiv 88 / 85 58% 1 06.06.2028 Befürworten
Leonardo Ponte Trakai Aktiv 59 / 76 58% 1 17.01.2028 -
Gianluca Pugliese Güemes Aktiv 123 / 111 40% 1 31.12.2027 Mehr Infos nötig
Kirill Leonovich Gomel Aktiv 108 / 90 40% 1 25.08.2027 -
Ignas Dubickas Siauliai Aktiv 49 / 59 58% 1 05.07.2027 -
Bashar Musa US Forces Armees Aktiv 96 / 74 40% 1 23.06.2027 -
Ignas Paulauskas Trakai Aktiv 61 / 67 58% 1 01.06.2027 -
Ivan Severjanov Volna Aktiv 77 / 72 40% 1 18.01.2027 -
Daniil Agureev Amkar Aktiv 81 / 93 40% 1 18.01.2027 -
Sergey Gaiduk Salyut Aktiv 72 / 86 40% 1 01.01.2027 -
Alexandr Lomovitskiy Torpedo-BelAZ Aktiv 115 / 98 40% 1 31.12.2026 Mehr Infos nötig
Islamzhan Nasyrov Ryazan Aktiv 103 / 86 40% 1 31.12.2026 Mehr Infos nötig
Lukas Simkus Stumbras Aktiv 86 / 100 40% 1 03.08.2026 -
Vladislav Pulkach Vitebsk Aktiv 82 / 89 40% 1 03.08.2026 -